Flight Track Log - Related Links

Times and Time Zones

All times are in EDT time to prevent confusion due to time zone crossing. See the JZA7939 flight status page for this flight to view local times or setup timezone preferences in your user account.

Time Position Orientation Groundspeed Altitude Reporting Facility
EDT Latitude Longitude Course Direction KTS MPH feet Rate Location/Type
Sat 06:44:00 PM 43.6667 -79.5667 103° East 170 196 1,500  Level Toronto Center
Sat 06:45:00 PM 43.7167 -79.5167 36° Northeast 190 219 3,700 2,400 Climbing Toronto Center
Sat 06:46:00 PM 43.7167 -79.4500 90° East 220 253 6,300 2,400 Climbing Toronto Center
Sat 06:47:00 PM 43.6500 -79.3833 144° Southeast 260 299 8,500 2,250 Climbing Toronto Center
Sat 06:48:00 PM 43.6000 -79.4500 224° Southwest 280 322 10,800 2,250 Climbing Toronto Center
Sat 06:49:00 PM 43.6000 -79.5667 270° West 300 345 13,000 1,500 Climbing Toronto Center
Sat 06:50:00 PM 43.6167 -79.6833 281° West 340 391 13,800 1,150 Climbing Toronto Center
Sat 06:51:00 PM 43.6333 -79.8167 280° West 360 414 15,300 1,350 Climbing Toronto Center
Sat 06:52:00 PM 43.6667 -79.9500 289° West 370 426 16,500 1,300 Climbing Toronto Center
Sat 06:53:00 PM 43.6833 -80.1167 278° West 380 437 17,900 1,150 Climbing Toronto Center
Sat 06:54:00 PM 43.7000 -80.2500 280° West 380 437 18,800 950 Climbing Toronto Center
Sat 06:55:00 PM 43.7167 -80.4000 279° West 390 449 19,800 900 Climbing Toronto Center
Sat 06:56:00 PM 43.7333 -80.5500 279° West 390 449 20,600 900 Climbing Toronto Center
Sat 06:57:00 PM 43.7000 -80.7000 253° West 400 460 21,600 950 Climbing Toronto Center
Sat 06:58:00 PM 43.6667 -80.8500 253° West 410 472 22,500 850 Climbing Toronto Center
Sat 06:59:00 PM 43.6500 -81.0000 261° West 410 472 23,300 700 Climbing Toronto Center
Sat 07:00:00 PM 43.6333 -81.1500 261° West 420 483 23,900 600 Climbing Toronto Center
Sat 07:01:00 PM 43.6167 -81.3167 262° West 420 483 24,500 600 Climbing Toronto Center
Sat 07:02:00 PM 43.6167 -81.5000 270° West 430 495 25,100 550 Climbing Toronto Center
Sat 07:03:00 PM 43.6000 -81.6667 262° West 440 506 25,600 700 Climbing Toronto Center
Sat 07:04:00 PM 43.5833 -81.8167 261° West 440 506 26,500 800 Climbing Toronto Center
Sat 07:05:00 PM 43.5667 -81.9833 262° West 430 495 27,200 750 Climbing Toronto Center
Sat 07:06:00 PM 43.5500 -82.1667 263° West 430 495 28,000 750 Climbing Toronto Center
Sat 07:07:00 PM 43.5500 -82.3000 270° West 430 495 28,700 750 Climbing Toronto Center
Sat 07:08:00 PM 43.5333 -82.4833 263° West 420 483 29,500 800 Climbing Toronto Center
Sat 07:09:00 PM 43.5167 -82.6167 260° West 420 483 30,300 700 Climbing Toronto Center
Sat 07:10:00 PM 43.5000 -82.7833 262° West 410 472 30,900 650 Climbing Toronto Center
Sat 07:11:00 PM 43.4833 -82.9500 262° West 420 483 31,600 533 Climbing Toronto Center
Sat 07:11:30 PM 43.4897 -83.0228 277° West 413 475 31,700 462 Climbing Cleveland Center
Sat 07:12:31 PM 43.4750 -83.1794 263° West 414 476 32,300 634 Climbing Cleveland Center
Sat 07:13:33 PM 43.4608 -83.3344 263° West 412 474 33,000 634 Climbing Cleveland Center
Sat 07:14:34 PM 43.4461 -83.4878 263° West 407 468 33,600 492 Climbing Cleveland Center
Sat 07:15:35 PM 43.4311 -83.6408 262° West 406 467 34,000 197 Climbing Cleveland Center
Sat 07:16:36 PM 43.4158 -83.7958 262° West 410 472 34,000  Level Cleveland Center
Sat 07:17:38 PM 43.3994 -83.9522 262° West 414 476 34,000  Level Cleveland Center
Sat 07:18:39 PM 43.3833 -84.1186 262° West 417 480 34,000  Level Cleveland Center
Sat 07:19:40 PM 43.3667 -84.2767 262° West 420 483 34,000  Level Cleveland Center
Sat 07:20:18 PM 43.3539 -84.4031 262° West 417 480 34,000  Level Chicago Center
Sat 07:21:20 PM 43.3369 -84.5594 262° West 416 479 34,000  Level Chicago Center
Sat 07:22:21 PM 43.3194 -84.7161 261° West 417 480 34,000  Level Chicago Center
Sat 07:23:22 PM 43.3028 -84.8706 262° West 412 474 34,000  Level Chicago Center
Sat 07:24:23 PM 43.2850 -85.0228 261° West 408 470 34,000 -49 Level Chicago Center
Sat 07:25:25 PM 43.2692 -85.1728 262° West 402 463 33,900 -488 Descending Chicago Center
Sat 07:26:26 PM 43.2525 -85.3242 261° West 402 463 33,000 -934 Descending Chicago Center
Sat 07:27:27 PM 43.2350 -85.4750 261° West 402 463 32,000 -878 Descending Chicago Center
Sat 07:28:29 PM 43.2181 -85.6222 261° West 397 457 31,200 -1,122 Descending Chicago Center
Sat 07:29:30 PM 43.1992 -85.7956 262° West 390 449 29,700 -1,672 Descending Chicago Center
Sat 07:30:31 PM 43.1817 -85.9419 261° West 394 453 27,800 -1,805 Descending Chicago Center
Sat 07:31:33 PM 43.1719 -86.0861 265° West 402 463 26,000 -1,805 Descending Chicago Center
Sat 07:32:34 PM 43.1675 -86.2258 268° West 379 436 24,100 -1,869 Descending Chicago Center
Sat 07:33:35 PM 43.1647 -86.3614 268° West 362 417 22,200 -2,000 Descending Chicago Center
Sat 07:34:37 PM 43.1614 -86.5244 268° West 360 414 20,000 -1,902 Descending Chicago Center
Sat 07:35:38 PM 43.1594 -86.6508 269° West 339 390 18,300 -1,610 Descending Chicago Center
Sat 07:36:40 PM 43.1572 -86.7731 269° West 325 374 16,700 -1,512 Descending Chicago Center
Sat 07:37:41 PM 43.1539 -86.8944 268° West 322 371 15,200 -1,463 Descending Chicago Center
Sat 07:38:43 PM 43.1514 -87.0150 268° West 319 367 13,700 -1,415 Descending Chicago Center
Sat 07:39:44 PM 43.1483 -87.1347 268° West 317 365 12,300 -1,574 Descending Chicago Center
Sat 07:40:45 PM 43.1350 -87.2436 261° West 295 339 10,500 -1,707 Descending Chicago Center
Sat 07:41:47 PM 43.1225 -87.3408 260° West 264 304 8,800 -1,805 Descending Chicago Center
Sat 07:42:48 PM 43.1114 -87.4436 262° West 246 283 6,800 -1,623 Descending Chicago Center
Sat 07:43:49 PM 43.1003 -87.5336 260° West 242 278 5,500 -1,122 Descending Chicago Center
Sat 07:44:51 PM 43.0903 -87.6253 262° West 242 278 4,500 -976 Descending Chicago Center
Sat 07:45:52 PM 43.0800 -87.7153 261° West 241 277 3,500 -885 Descending Chicago Center
Sat 07:46:53 PM 43.0711 -87.7944 261° West 223 257 2,700 -390 Descending Chicago Center
Sat 07:47:55 PM 43.0622 -87.8603 260° West 200 230 2,700 -390 Level Chicago Center
Sat 07:48:56 PM 43.0147 -87.8822 199° South 169 194 1,900 -541 Descending Chicago Center
Sat 07:49:57 PM 42.9800 -87.8878 187° South 159 183 1,600 -537 Descending Chicago Center
Sat 07:50:59 PM 42.9406 -87.8978 191° South 149 171 800 -774 Descending Chicago Center

Login

Don't have an account? Register now (free) for customized features, flight alerts, and more!